Time;durP1;ratioP1;P1;durP2;ratioP2;P2;SDS_P1;SDS_P2;PMS_P1;PMS_P2;Temp;Humidity;BMP_temperature;BMP_pressure;BME280_temperature;BME280_humidity;BME280_pressure;Samples;Min_cycle;Max_cycle;Signal;HPM_P1;HPM_P2
2022/10/12 00:01:22;;;;;;;36.08;16.58;;;12.20;99.90;;;;;;5050947;28;20024;-66
2022/10/12 00:03:48;;;;;;;35.65;17.35;;;12.20;99.90;;;;;;5049958;28;20103;-65
2022/10/12 00:06:19;;;;;;;39.00;16.08;;;12.20;99.90;;;;;;5050477;28;20040;-66
2022/10/12 00:08:49;;;;;;;33.05;15.80;;;12.10;99.90;;;;;;5049602;28;20108;-64
2022/10/12 00:11:18;;;;;;;43.27;16.87;;;12.10;99.90;;;;;;5050499;28;20025;-66
2022/10/12 00:13:45;;;;;;;31.20;15.50;;;12.10;99.90;;;;;;5049709;28;20029;-64
2022/10/12 00:16:13;;;;;;;35.10;16.02;;;12.10;99.90;;;;;;5050553;28;20096;-65
2022/10/12 00:18:39;;;;;;;33.67;15.57;;;12.00;99.90;;;;;;5050026;28;20389;-66
2022/10/12 00:21:14;;;;;;;34.90;15.68;;;12.00;99.90;;;;;;5049955;28;20045;-65
2022/10/12 00:23:41;;;;;;;37.25;16.52;;;11.90;99.90;;;;;;5029749;28;20132;-67
2022/10/12 00:26:16;;;;;;;37.50;15.90;;;11.90;99.90;;;;;;5030522;28;20458;-66
2022/10/12 00:28:42;;;;;;;33.83;16.58;;;11.90;99.90;;;;;;5029646;28;20075;-65
2022/10/12 00:31:14;;;;;;;32.78;16.45;;;11.90;99.90;;;;;;5030470;28;20079;-65
2022/10/12 00:33:40;;;;;;;41.33;16.35;;;11.80;99.90;;;;;;5048925;28;20035;-69
2022/10/12 00:36:28;;;;;;;35.22;16.48;;;11.80;99.90;;;;;;5050148;28;20491;-64
2022/10/12 00:38:55;;;;;;;34.47;16.30;;;11.70;99.90;;;;;;5049383;28;20025;-64
2022/10/12 00:41:30;;;;;;;30.17;15.40;;;11.80;99.90;;;;;;5049687;28;20037;-65
2022/10/12 00:43:56;;;;;;;28.90;15.23;;;11.80;99.90;;;;;;5049299;28;20190;-66
2022/10/12 00:46:40;;;;;;;37.60;16.45;;;11.80;99.90;;;;;;5050102;28;20116;-64
2022/10/12 00:49:23;;;;;;;31.95;15.55;;;11.70;99.90;;;;;;5049551;28;20521;-63
2022/10/12 00:52:00;;;;;;;41.70;16.48;;;11.70;99.90;;;;;;5048817;28;20481;-65
2022/10/12 00:54:30;;;;;;;35.05;15.18;;;11.60;99.90;;;;;;5047840;28;20033;-65
2022/10/12 00:56:57;;;;;;;35.50;16.40;;;11.60;99.90;;;;;;5049212;28;20040;-66
2022/10/12 00:59:29;;;;;;;37.40;16.48;;;11.60;99.90;;;;;;5049485;28;20033;-66
2022/10/12 01:01:55;;;;;;;38.95;17.02;;;11.60;99.90;;;;;;5048849;28;20663;-65
2022/10/12 01:04:22;;;;;;;39.33;16.33;;;11.60;99.90;;;;;;5047808;28;20067;-64
2022/10/12 01:06:48;;;;;;;37.88;16.35;;;11.60;99.90;;;;;;5047487;28;20174;-64
2022/10/12 01:09:14;;;;;;;35.28;17.52;;;11.60;99.90;;;;;;5048906;28;20538;-64
2022/10/12 01:11:40;;;;;;;35.67;16.40;;;11.70;99.90;;;;;;5049078;28;20397;-69
2022/10/12 01:14:05;;;;;;;34.70;16.73;;;11.60;99.90;;;;;;5049365;28;20040;-66
2022/10/12 01:16:41;;;;;;;35.70;17.35;;;11.60;99.90;;;;;;5049552;28;20049;-65
2022/10/12 01:19:25;;;;;;;37.47;16.70;;;11.60;99.90;;;;;;5049289;28;20488;-65
2022/10/12 01:22:00;;;;;;;40.08;16.20;;;11.60;99.90;;;;;;5048241;28;20052;-65
2022/10/12 01:24:37;;;;;;;36.03;15.88;;;11.60;99.90;;;;;;5049438;28;20102;-65
2022/10/12 01:27:15;;;;;;;33.95;17.35;;;11.60;99.90;;;;;;5048517;28;20063;-65
2022/10/12 01:30:32;;;;;;;38.85;16.58;;;11.50;99.90;;;;;;5049224;28;20033;-68
2022/10/12 01:33:13;;;;;;;41.47;16.02;;;11.60;99.90;;;;;;5035953;28;20559;-64
2022/10/12 01:35:49;;;;;;;39.03;16.05;;;11.50;99.90;;;;;;5049379;28;20017;-65
2022/10/12 01:38:14;;;;;;;35.78;16.58;;;11.40;99.90;;;;;;5049386;28;20534;-64
2022/10/12 01:41:13;;;;;;;37.30;16.27;;;11.30;99.90;;;;;;5049305;28;20104;-65
2022/10/12 01:43:41;;;;;;;36.08;16.52;;;11.30;99.90;;;;;;5049226;28;20111;-65
2022/10/12 01:46:19;;;;;;;37.05;17.70;;;11.30;99.90;;;;;;5048718;28;20056;-64
2022/10/12 01:48:47;;;;;;;32.08;16.33;;;11.20;99.90;;;;;;5048498;28;20150;-69
2022/10/12 01:51:18;;;;;;;33.70;16.30;;;11.20;99.90;;;;;;5049055;28;20037;-64
2022/10/12 01:53:51;;;;;;;36.72;16.30;;;11.20;99.90;;;;;;5048993;28;20068;-69
2022/10/12 01:56:43;;;;;;;37.38;16.35;;;11.10;99.90;;;;;;5049143;28;20033;-65
2022/10/12 01:59:40;;;;;;;35.15;15.95;;;11.10;99.90;;;;;;5047335;28;20045;-64
2022/10/12 02:02:26;;;;;;;35.85;16.63;;;11.10;99.90;;;;;;5028487;28;20049;-64
2022/10/12 02:04:59;;;;;;;36.17;16.77;;;11.10;99.90;;;;;;5048257;28;20096;-65
2022/10/12 02:07:48;;;;;;;44.10;16.13;;;11.00;99.90;;;;;;5047751;28;20381;-64
2022/10/12 02:10:21;;;;;;;40.30;17.88;;;11.00;99.90;;;;;;5048976;28;20029;-65
2022/10/12 02:12:49;;;;;;;37.92;17.25;;;11.00;99.90;;;;;;5048290;28;20028;-68
2022/10/12 02:15:16;;;;;;;38.42;16.85;;;11.00;99.90;;;;;;5048340;28;20029;-65
2022/10/12 02:17:46;;;;;;;34.53;17.42;;;10.90;99.90;;;;;;5052806;28;20029;-65
2022/10/12 02:20:16;;;;;;;39.03;17.00;;;10.90;99.90;;;;;;5052339;28;20060;-65
2022/10/12 02:22:46;;;;;;;37.70;17.05;;;10.90;99.90;;;;;;5052300;28;20072;-64
2022/10/12 02:25:15;;;;;;;38.22;16.02;;;10.80;99.90;;;;;;5051261;28;20040;-66
2022/10/12 02:27:45;;;;;;;42.08;17.35;;;10.80;99.90;;;;;;5052537;28;20040;-64
2022/10/12 02:30:11;;;;;;;35.92;17.08;;;10.80;99.90;;;;;;5052499;28;20039;-65
2022/10/12 02:32:45;;;;;;;35.00;17.33;;;10.80;99.90;;;;;;5052522;28;20032;-64
2022/10/12 02:35:24;;;;;;;35.60;18.05;;;10.90;99.90;;;;;;5051877;28;20180;-63
2022/10/12 02:38:04;;;;;;;41.25;16.73;;;10.90;99.90;;;;;;5051861;28;20044;-65
2022/10/12 02:40:37;;;;;;;37.17;17.90;;;10.90;99.90;;;;;;5052440;28;20078;-65
2022/10/12 02:43:35;;;;;;;29.77;15.55;;;10.80;99.90;;;;;;5051498;28;20041;-64
2022/10/12 02:46:03;;;;;;;29.83;14.68;;;10.80;99.90;;;;;;5051558;28;20033;-65
2022/10/12 02:48:29;;;;;;;37.33;17.23;;;10.80;99.90;;;;;;5051752;28;20461;-64
2022/10/12 02:50:56;;;;;;;38.78;16.65;;;10.70;99.90;;;;;;5051479;28;20032;-63
2022/10/12 02:53:23;;;;;;;40.92;17.60;;;10.70;99.90;;;;;;5050922;28;20037;-65
2022/10/12 02:55:51;;;;;;;34.58;17.25;;;10.70;99.90;;;;;;5051590;28;20045;-68
2022/10/12 02:58:18;;;;;;;34.78;16.17;;;10.60;99.90;;;;;;5052068;28;20488;-65
2022/10/12 03:00:44;;;;;;;37.10;17.05;;;10.60;99.90;;;;;;5051847;28;20179;-65
2022/10/12 03:03:09;;;;;;;34.13;15.95;;;10.60;99.90;;;;;;5050982;28;20876;-65
2022/10/12 03:05:35;;;;;;;32.60;16.45;;;10.60;99.90;;;;;;5051563;28;20033;-64
2022/10/12 03:08:01;;;;;;;37.72;16.25;;;10.50;99.90;;;;;;5051136;28;20083;-65
2022/10/12 03:10:26;;;;;;;41.08;16.65;;;10.50;99.90;;;;;;5051716;28;20075;-64
2022/10/12 03:12:53;;;;;;;40.90;14.73;;;10.40;99.90;;;;;;5050676;28;20036;-64
2022/10/12 03:15:19;;;;;;;34.63;14.15;;;10.30;99.90;;;;;;5051781;28;20759;-64
2022/10/12 03:17:44;;;;;;;30.63;14.15;;;10.30;99.90;;;;;;5051154;28;20039;-65
2022/10/12 03:20:10;;;;;;;28.88;13.82;;;10.20;99.90;;;;;;5050666;28;20036;-65
2022/10/12 03:22:36;;;;;;;47.05;14.75;;;10.20;99.90;;;;;;5051467;28;20057;-64
2022/10/12 03:25:01;;;;;;;38.83;16.35;;;10.20;99.90;;;;;;5050624;28;20035;-65
2022/10/12 03:27:27;;;;;;;32.75;16.92;;;10.20;99.90;;;;;;5050831;28;20087;-64
2022/10/12 03:29:53;;;;;;;32.80;16.35;;;10.30;99.90;;;;;;5050721;28;20021;-65
2022/10/12 03:32:18;;;;;;;39.17;17.67;;;10.30;99.90;;;;;;5051325;28;20060;-64
2022/10/12 03:34:44;;;;;;;35.90;16.88;;;10.30;99.90;;;;;;5051317;28;20462;-64
2022/10/12 03:37:09;;;;;;;35.42;17.58;;;10.20;99.90;;;;;;5050602;28;20025;-64
2022/10/12 03:39:35;;;;;;;35.78;16.15;;;10.20;99.90;;;;;;5051323;28;20358;-64
2022/10/12 03:42:01;;;;;;;37.58;17.13;;;10.20;99.90;;;;;;5050343;28;20381;-64
2022/10/12 03:44:26;;;;;;;38.38;16.85;;;10.20;99.90;;;;;;5051167;28;20466;-65
2022/10/12 03:46:52;;;;;;;31.10;15.25;;;10.20;99.90;;;;;;5050614;28;20063;-67
2022/10/12 03:49:17;;;;;;;30.50;16.10;;;10.20;99.90;;;;;;5050507;28;20063;-64
2022/10/12 03:51:43;;;;;;;34.30;16.85;;;10.20;99.90;;;;;;5050942;28;20029;-64
2022/10/12 03:54:09;;;;;;;31.90;15.65;;;10.20;99.90;;;;;;5050258;28;20112;-64
2022/10/12 03:56:34;;;;;;;35.35;16.08;;;10.20;99.90;;;;;;5050945;28;20040;-65
2022/10/12 03:59:00;;;;;;;41.22;16.98;;;10.20;99.90;;;;;;5050153;28;20040;-64
2022/10/12 04:01:26;;;;;;;32.85;15.80;;;10.10;99.90;;;;;;5050826;28;20029;-65
2022/10/12 04:03:52;;;;;;;34.53;16.20;;;10.10;99.90;;;;;;5050296;28;20045;-68
2022/10/12 04:06:17;;;;;;;35.47;16.85;;;10.20;99.90;;;;;;5050688;28;20033;-65
2022/10/12 04:08:43;;;;;;;32.83;15.77;;;10.10;99.90;;;;;;5050689;28;20466;-64
2022/10/12 04:11:09;;;;;;;40.05;15.90;;;10.10;99.90;;;;;;5049687;28;20747;-65
2022/10/12 04:13:34;;;;;;;25.67;14.05;;;10.00;99.90;;;;;;5050816;28;20037;-65
2022/10/12 04:16:02;;;;;;;33.78;15.95;;;10.00;99.90;;;;;;5049494;28;20083;-64
2022/10/12 04:18:27;;;;;;;29.30;15.30;;;10.00;99.90;;;;;;5050628;28;20063;-65
2022/10/12 04:20:53;;;;;;;243.00;20.25;;;10.00;99.90;;;;;;5049855;28;20033;-68
2022/10/12 04:23:19;;;;;;;33.40;15.15;;;10.00;99.90;;;;;;5050259;28;20481;-64
2022/10/12 04:25:45;;;;;;;32.90;14.40;;;9.90;99.90;;;;;;5050200;28;20064;-64
2022/10/12 04:28:11;;;;;;;33.70;15.25;;;9.80;99.90;;;;;;5048188;28;20047;-65
2022/10/12 04:30:37;;;;;;;40.00;15.32;;;9.80;99.90;;;;;;5050410;28;20031;-64
2022/10/12 04:33:03;;;;;;;28.75;14.68;;;9.80;99.90;;;;;;5049351;28;20112;-66
2022/10/12 04:35:29;;;;;;;28.42;15.07;;;9.80;99.90;;;;;;5050563;28;20449;-63
2022/10/12 04:37:55;;;;;;;41.92;15.88;;;9.70;99.90;;;;;;5049435;28;20108;-69
2022/10/12 04:40:21;;;;;;;29.58;14.75;;;9.70;99.90;;;;;;5049418;28;20424;-63
2022/10/12 04:42:47;;;;;;;32.67;15.85;;;9.70;99.90;;;;;;5050048;28;20416;-65
2022/10/12 04:45:13;;;;;;;28.58;15.10;;;9.70;99.90;;;;;;5048482;28;20110;-65
2022/10/12 04:47:38;;;;;;;405.23;23.40;;;9.70;99.90;;;;;;5049826;28;20061;-64
2022/10/12 04:50:05;;;;;;;32.97;14.98;;;9.70;99.90;;;;;;5047736;28;20033;-65
2022/10/12 04:52:31;;;;;;;49.47;15.98;;;9.70;99.90;;;;;;5049654;28;20063;-64
2022/10/12 04:54:56;;;;;;;41.28;15.38;;;9.70;99.90;;;;;;5049413;28;20028;-68
2022/10/12 04:57:22;;;;;;;58.95;15.07;;;9.70;99.90;;;;;;5049443;28;20112;-65
2022/10/12 04:59:48;;;;;;;39.88;17.83;;;9.70;99.90;;;;;;5049490;28;20032;-64
2022/10/12 05:02:13;;;;;;;32.30;16.20;;;9.70;99.90;;;;;;5048998;28;20035;-66
2022/10/12 05:04:39;;;;;;;35.45;16.67;;;9.80;99.90;;;;;;5049769;28;20033;-65
2022/10/12 05:07:05;;;;;;;36.38;17.77;;;9.70;99.90;;;;;;5048573;28;20040;-64
2022/10/12 05:09:31;;;;;;;38.03;18.08;;;9.70;99.90;;;;;;5047936;28;20029;-64
2022/10/12 05:11:56;;;;;;;38.95;17.33;;;9.70;99.90;;;;;;5048810;28;20032;-67
2022/10/12 05:14:22;;;;;;;44.70;17.40;;;9.70;99.90;;;;;;5049530;28;20086;-65
2022/10/12 05:16:48;;;;;;;43.30;19.75;;;9.70;99.90;;;;;;5048260;28;20034;-64
2022/10/12 05:19:13;;;;;;;198.55;21.42;;;9.80;99.90;;;;;;5048799;28;20362;-62
2022/10/12 05:21:39;;;;;;;46.03;17.65;;;9.80;99.90;;;;;;5049026;28;20057;-65
2022/10/12 05:24:05;;;;;;;93.95;16.75;;;9.80;99.90;;;;;;5048620;28;20041;-64
2022/10/12 05:26:31;;;;;;;54.67;15.27;;;9.80;99.90;;;;;;5049085;28;20031;-64
2022/10/12 05:28:57;;;;;;;390.33;20.30;;;9.70;99.90;;;;;;5049463;28;20028;-67
2022/10/12 05:31:22;;;;;;;45.03;14.38;;;9.70;99.90;;;;;;5047667;28;20021;-64
2022/10/12 05:33:48;;;;;;;158.88;16.85;;;9.60;99.90;;;;;;5049564;28;20519;-65
2022/10/12 05:36:14;;;;;;;58.65;15.90;;;9.50;99.90;;;;;;5048530;28;20174;-65
2022/10/12 05:38:40;;;;;;;123.55;17.20;;;9.50;99.90;;;;;;5049354;28;20052;-65
2022/10/12 05:41:05;;;;;;;278.30;18.00;;;9.40;99.90;;;;;;5048026;28;20037;-65
2022/10/12 05:43:31;;;;;;;35.53;15.52;;;9.40;99.90;;;;;;5048954;28;20466;-65
2022/10/12 05:45:57;;;;;;;28.98;14.10;;;9.40;99.90;;;;;;5048819;28;20044;-69
2022/10/12 05:48:23;;;;;;;35.08;16.73;;;9.40;99.90;;;;;;5048837;28;20454;-66
2022/10/12 05:50:52;;;;;;;44.85;15.35;;;9.40;99.90;;;;;;5049315;28;20029;-63
2022/10/12 05:53:17;;;;;;;135.63;16.33;;;9.40;99.90;;;;;;5052486;28;20136;-65
2022/10/12 05:55:54;;;;;;;31.83;16.10;;;9.50;99.90;;;;;;5051922;28;20099;-64
2022/10/12 05:58:19;;;;;;;46.67;19.17;;;9.50;99.90;;;;;;5052519;28;20025;-65
2022/10/12 06:00:45;;;;;;;55.20;19.25;;;9.40;99.90;;;;;;5052598;28;20092;-64
2022/10/12 06:03:11;;;;;;;87.28;17.25;;;9.40;99.90;;;;;;5051964;28;20079;-64
2022/10/12 06:05:36;;;;;;;93.18;17.33;;;9.40;99.90;;;;;;5053318;28;20075;-63
2022/10/12 06:08:02;;;;;;;53.72;17.70;;;9.40;99.90;;;;;;5052168;28;20021;-64
2022/10/12 06:10:28;;;;;;;51.45;17.10;;;9.50;99.90;;;;;;5053010;28;20387;-64
2022/10/12 06:12:53;;;;;;;47.15;17.05;;;9.60;99.90;;;;;;5052986;28;20028;-65
2022/10/12 06:15:19;;;;;;;35.22;16.08;;;9.60;99.90;;;;;;5052110;28;20056;-65
2022/10/12 06:17:44;;;;;;;35.78;17.13;;;9.70;99.90;;;;;;5052818;28;20419;-62
2022/10/12 06:20:10;;;;;;;161.85;20.30;;;9.60;99.90;;;;;;5051667;28;20454;-64
2022/10/12 06:22:36;;;;;;;84.88;17.38;;;9.60;99.90;;;;;;5051266;28;20063;-65
2022/10/12 06:25:01;;;;;;;68.00;17.05;;;9.60;99.90;;;;;;5051735;28;20033;-69
2022/10/12 06:27:27;;;;;;;340.48;20.25;;;9.70;99.90;;;;;;5052667;28;20029;-66
2022/10/12 06:29:53;;;;;;;80.88;16.80;;;9.60;99.90;;;;;;5052647;28;20458;-65
2022/10/12 06:32:18;;;;;;;30.73;16.13;;;9.50;99.90;;;;;;5051869;28;20033;-64
2022/10/12 06:34:44;;;;;;;76.93;16.35;;;9.50;99.90;;;;;;5052542;28;20037;-65
2022/10/12 06:37:10;;;;;;;142.00;18.75;;;9.50;99.90;;;;;;5051700;28;20055;-65
2022/10/12 06:39:35;;;;;;;98.22;18.10;;;9.60;99.90;;;;;;5052462;28;20029;-66
2022/10/12 06:42:01;;;;;;;53.65;17.90;;;9.70;99.90;;;;;;5051958;28;20141;-69
2022/10/12 06:44:27;;;;;;;88.35;17.98;;;9.70;99.90;;;;;;5051886;28;20029;-64
2022/10/12 06:46:52;;;;;;;196.45;19.85;;;9.70;99.90;;;;;;5051701;28;20465;-66
2022/10/12 06:49:18;;;;;;;187.80;18.55;;;9.80;99.90;;;;;;5051047;28;20032;-64
2022/10/12 06:51:44;;;;;;;66.38;16.77;;;9.70;99.90;;;;;;5052122;28;20087;-64
2022/10/12 06:54:10;;;;;;;183.85;18.27;;;9.70;99.90;;;;;;5051539;28;20044;-65
2022/10/12 06:56:37;;;;;;;118.35;18.02;;;9.80;99.90;;;;;;5051622;28;20041;-63
2022/10/12 06:59:03;;;;;;;55.42;16.15;;;9.90;99.90;;;;;;5051735;28;20049;-68
2022/10/12 07:01:28;;;;;;;175.45;18.13;;;9.90;99.90;;;;;;5050927;28;20052;-64
2022/10/12 07:03:54;;;;;;;287.38;20.42;;;10.00;99.90;;;;;;5050998;28;20037;-65
2022/10/12 07:06:19;;;;;;;196.23;19.17;;;10.00;99.90;;;;;;5050927;28;20124;-64
2022/10/12 07:08:45;;;;;;;84.88;18.20;;;10.00;99.90;;;;;;5051904;28;20028;-64
2022/10/12 07:11:12;;;;;;;43.20;16.02;;;10.00;99.90;;;;;;5051047;28;20040;-65
2022/10/12 07:13:38;;;;;;;48.53;18.70;;;10.10;99.90;;;;;;5051802;28;20036;-65
2022/10/12 07:16:04;;;;;;;30.85;16.67;;;10.10;99.90;;;;;;5049969;28;20033;-66
2022/10/12 07:18:30;;;;;;;35.72;17.23;;;10.20;99.90;;;;;;5051599;28;20040;-66
2022/10/12 07:20:58;;;;;;;35.58;17.83;;;10.30;99.90;;;;;;5051074;28;20033;-67
2022/10/12 07:23:24;;;;;;;34.47;17.52;;;10.40;99.90;;;;;;5050821;28;20033;-64
2022/10/12 07:25:51;;;;;;;35.05;16.95;;;10.50;99.90;;;;;;5051892;28;20060;-63
2022/10/12 07:28:18;;;;;;;41.30;17.35;;;10.70;99.90;;;;;;5050813;28;20064;-64
2022/10/12 07:30:44;;;;;;;35.92;19.70;;;10.80;99.90;;;;;;5051224;28;20549;-65
2022/10/12 07:33:10;;;;;;;36.72;18.52;;;10.80;99.90;;;;;;5050654;28;20043;-65
2022/10/12 07:35:36;;;;;;;37.42;17.17;;;10.90;99.90;;;;;;5051382;28;20021;-66
2022/10/12 07:38:01;;;;;;;33.83;17.23;;;11.00;99.90;;;;;;5051497;28;20025;-65
2022/10/12 07:40:28;;;;;;;33.45;17.05;;;11.20;99.90;;;;;;5050063;28;20028;-64
2022/10/12 07:42:54;;;;;;;35.25;18.13;;;11.30;99.90;;;;;;5051037;28;20029;-64
2022/10/12 07:45:20;;;;;;;34.13;18.20;;;11.50;99.90;;;;;;5050271;28;20029;-64
2022/10/12 07:47:46;;;;;;;35.25;17.40;;;11.60;99.90;;;;;;5050921;28;20021;-65
2022/10/12 07:50:13;;;;;;;35.10;16.90;;;11.60;99.90;;;;;;5050299;28;20029;-63
2022/10/12 07:52:39;;;;;;;36.13;18.75;;;11.60;99.90;;;;;;5051153;28;20069;-65
2022/10/12 07:55:05;;;;;;;33.75;17.35;;;11.60;99.90;;;;;;5050671;28;20021;-67
2022/10/12 07:57:31;;;;;;;30.67;16.88;;;11.60;99.90;;;;;;5051124;28;20037;-65
2022/10/12 07:59:57;;;;;;;35.33;18.17;;;11.70;99.90;;;;;;5050925;28;20039;-64
2022/10/12 08:02:22;;;;;;;33.65;16.92;;;11.80;99.90;;;;;;5050071;28;20068;-65
2022/10/12 08:04:48;;;;;;;40.30;18.58;;;11.90;99.90;;;;;;5050545;28;20489;-65
2022/10/12 08:07:14;;;;;;;35.50;19.08;;;12.10;99.90;;;;;;5050025;28;20029;-65
2022/10/12 08:09:39;;;;;;;39.92;22.20;;;12.20;99.90;;;;;;5050744;28;20033;-65
2022/10/12 08:12:05;;;;;;;45.10;22.63;;;12.40;99.90;;;;;;5050261;28;20108;-69
2022/10/12 08:14:31;;;;;;;43.67;20.30;;;12.60;99.90;;;;;;5049918;28;20081;-64
2022/10/12 08:16:57;;;;;;;46.00;20.08;;;12.90;99.90;;;;;;5050797;28;20032;-66
2022/10/12 08:19:23;;;;;;;53.42;21.92;;;13.10;99.90;;;;;;5049690;28;20021;-65
2022/10/12 08:21:49;;;;;;;40.25;19.48;;;13.30;99.90;;;;;;5050387;28;20053;-64
2022/10/12 08:24:14;;;;;;;39.10;19.02;;;13.60;99.90;;;;;;5049587;28;20048;-65
2022/10/12 08:26:40;;;;;;;50.40;21.98;;;13.70;99.90;;;;;;5050234;28;20029;-64
2022/10/12 08:29:07;;;;;;;43.70;21.90;;;13.90;99.90;;;;;;5049704;28;20028;-67
2022/10/12 08:31:33;;;;;;;41.72;19.10;;;14.00;99.90;;;;;;5049649;28;20024;-66
2022/10/12 08:33:59;;;;;;;44.35;21.08;;;14.10;99.90;;;;;;5050299;28;20198;-64
2022/10/12 08:36:25;;;;;;;44.90;19.48;;;14.10;99.90;;;;;;5049378;28;20137;-63
2022/10/12 08:38:53;;;;;;;45.03;20.58;;;14.20;99.90;;;;;;5050562;28;20040;-66
2022/10/12 08:41:27;;;;;;;42.85;20.40;;;14.20;99.90;;;;;;5049436;28;20051;-65
2022/10/12 08:44:21;;;;;;;40.30;18.30;;;14.30;99.90;;;;;;5050143;28;20134;-63
2022/10/12 08:46:48;;;;;;;39.75;19.25;;;14.30;99.90;;;;;;5050153;28;20167;-65
2022/10/12 08:49:21;;;;;;;38.97;18.00;;;14.40;99.90;;;;;;5049293;28;20040;-63
2022/10/12 08:51:56;;;;;;;38.50;17.40;;;14.50;99.90;;;;;;5049697;28;20025;-63
2022/10/12 08:54:24;;;;;;;35.85;17.60;;;14.70;99.90;;;;;;5048643;28;20558;-65
2022/10/12 08:56:54;;;;;;;41.58;18.73;;;14.90;99.90;;;;;;5047608;28;20762;-64
2022/10/12 08:59:20;;;;;;;36.60;18.15;;;14.90;99.90;;;;;;5049003;28;20028;-64
2022/10/12 09:02:12;;;;;;;42.47;17.27;;;15.00;99.90;;;;;;5049560;28;20040;-66
2022/10/12 09:04:58;;;;;;;45.10;18.40;;;15.00;99.90;;;;;;5049846;28;20029;-64
2022/10/12 09:07:49;;;;;;;41.35;19.30;;;15.00;99.90;;;;;;5049003;28;20039;-65
2022/10/12 09:10:52;;;;;;;44.95;19.17;;;15.00;99.90;;;;;;5049053;28;20492;-64
2022/10/12 09:13:27;;;;;;;49.72;20.27;;;15.00;99.90;;;;;;5045881;28;20079;-64
2022/10/12 09:16:01;;;;;;;40.38;19.55;;;14.90;99.90;;;;;;5050047;28;20048;-64
2022/10/12 09:18:41;;;;;;;49.10;20.73;;;15.00;99.90;;;;;;5048622;28;20044;-65
2022/10/12 09:21:16;;;;;;;43.92;19.85;;;14.90;99.90;;;;;;5049359;28;20072;-62
2022/10/12 09:23:43;;;;;;;45.85;19.42;;;14.90;99.90;;;;;;5049457;28;20520;-63
2022/10/12 09:26:20;;;;;;;44.00;19.25;;;14.90;99.90;;;;;;5048818;28;20017;-69
2022/10/12 09:28:57;;;;;;;44.88;18.27;;;15.00;99.90;;;;;;5049141;28;20029;-65
2022/10/12 09:31:49;;;;;;;43.97;19.67;;;15.00;99.90;;;;;;5048555;28;20123;-64
2022/10/12 09:34:14;;;;;;;44.88;19.85;;;15.00;99.90;;;;;;5048674;28;20036;-65
2022/10/12 09:36:41;;;;;;;43.97;20.08;;;15.10;99.90;;;;;;5049093;28;20032;-65
2022/10/12 09:39:15;;;;;;;40.17;19.73;;;15.10;99.90;;;;;;5049383;28;20029;-66
2022/10/12 09:41:43;;;;;;;46.17;19.42;;;15.10;99.90;;;;;;5049637;28;20363;-63
2022/10/12 09:44:27;;;;;;;45.20;18.17;;;15.20;99.90;;;;;;5049084;28;20033;-66
2022/10/12 09:47:22;;;;;;;42.97;19.20;;;15.20;99.90;;;;;;5048998;28;20028;-63
2022/10/12 09:49:50;;;;;;;48.38;20.05;;;15.20;99.90;;;;;;5049234;28;20112;-63
2022/10/12 09:52:19;;;;;;;38.53;17.95;;;15.40;99.90;;;;;;5047328;28;20029;-64
2022/10/12 09:54:47;;;;;;;40.25;18.77;;;15.40;99.90;;;;;;5048889;28;20028;-64
2022/10/12 09:57:39;;;;;;;47.20;19.70;;;15.40;99.90;;;;;;5048764;28;20029;-69
2022/10/12 10:00:26;;;;;;;45.03;20.65;;;15.40;99.90;;;;;;5048959;28;20025;-65
2022/10/12 10:02:52;;;;;;;44.22;20.45;;;15.40;99.90;;;;;;5049125;28;20045;-66
2022/10/12 10:05:24;;;;;;;57.38;21.38;;;15.40;99.90;;;;;;5046983;28;20423;-65
2022/10/12 10:07:50;;;;;;;46.70;19.50;;;15.30;99.90;;;;;;5049156;28;20040;-65
2022/10/12 10:10:22;;;;;;;43.40;19.70;;;15.20;99.90;;;;;;5048388;28;20029;-64
2022/10/12 10:12:52;;;;;;;45.75;19.30;;;15.30;99.90;;;;;;5049045;28;20025;-64
2022/10/12 10:15:31;;;;;;;47.85;20.23;;;15.30;99.90;;;;;;5048239;28;20032;-66
2022/10/12 10:17:59;;;;;;;47.75;21.48;;;15.30;99.90;;;;;;5048879;28;20735;-65
2022/10/12 10:20:42;;;;;;;45.80;20.58;;;15.20;99.90;;;;;;5048050;28;20350;-63
2022/10/12 10:23:27;;;;;;;46.85;20.90;;;15.20;99.90;;;;;;5048620;28;20049;-65
2022/10/12 10:26:00;;;;;;;47.45;20.30;;;15.20;99.90;;;;;;5048909;28;20024;-66
2022/10/12 10:28:35;;;;;;;48.97;21.05;;;15.10;99.90;;;;;;5047870;28;20040;-65
2022/10/12 10:31:03;;;;;;;47.47;20.35;;;15.10;99.90;;;;;;5048879;28;20036;-63
2022/10/12 10:33:34;;;;;;;43.83;20.38;;;15.00;99.90;;;;;;5047905;28;20028;-64
2022/10/12 10:36:03;;;;;;;43.20;20.17;;;15.10;99.90;;;;;;5049570;28;20044;-66
2022/10/12 10:38:55;;;;;;;45.00;21.23;;;15.20;99.90;;;;;;5051800;28;20033;-66
2022/10/12 10:41:26;;;;;;;41.42;18.48;;;15.30;99.90;;;;;;5051833;28;20251;-65
2022/10/12 10:43:52;;;;;;;41.38;18.85;;;15.40;99.90;;;;;;5052469;28;20044;-63
2022/10/12 10:46:25;;;;;;;39.75;19.27;;;15.40;99.90;;;;;;5051651;28;20064;-69
2022/10/12 10:48:56;;;;;;;35.80;15.68;;;15.40;99.90;;;;;;5052378;28;20032;-65
2022/10/12 10:51:37;;;;;;;39.15;16.02;;;15.40;99.90;;;;;;5051696;28;20032;-64
2022/10/12 10:54:23;;;;;;;42.00;19.08;;;15.40;99.90;;;;;;5051894;28;20560;-64
2022/10/12 10:56:58;;;;;;;42.35;16.83;;;15.40;99.90;;;;;;5052204;28;20492;-64
2022/10/12 10:59:40;;;;;;;26.80;12.93;;;15.50;99.90;;;;;;5051451;28;20091;-66
2022/10/12 11:02:29;;;;;;;30.60;12.40;;;15.60;99.90;;;;;;5051984;28;20033;-66
2022/10/12 11:05:11;;;;;;;30.85;13.70;;;15.70;99.90;;;;;;5052409;28;20118;-65
2022/10/12 11:07:45;;;;;;;31.80;14.23;;;15.80;99.90;;;;;;5050956;28;20107;-64
2022/10/12 11:10:32;;;;;;;31.85;14.20;;;16.00;99.90;;;;;;5052111;28;20118;-65
2022/10/12 11:13:13;;;;;;;33.58;14.30;;;16.00;99.90;;;;;;5051681;28;20112;-63
2022/10/12 11:15:49;;;;;;;31.73;13.93;;;16.00;99.90;;;;;;5051163;28;20029;-65
2022/10/12 11:18:33;;;;;;;34.85;14.65;;;16.00;99.90;;;;;;5051925;28;20036;-64
2022/10/12 11:21:10;;;;;;;36.75;14.70;;;16.00;99.90;;;;;;5051205;28;20064;-65
2022/10/12 11:23:58;;;;;;;31.15;14.88;;;16.20;99.90;;;;;;5050877;28;20041;-66
2022/10/12 11:26:29;;;;;;;36.88;14.82;;;16.50;99.90;;;;;;5051019;28;20520;-64
2022/10/12 11:28:58;;;;;;;33.55;14.52;;;16.70;99.90;;;;;;5051665;28;20029;-63
2022/10/12 11:31:27;;;;;;;33.72;12.85;;;16.80;99.90;;;;;;5050829;28;20028;-65
2022/10/12 11:33:57;;;;;;;32.33;14.77;;;16.70;99.90;;;;;;5051583;28;20033;-64
2022/10/12 11:36:27;;;;;;;39.20;15.35;;;16.30;99.90;;;;;;5050383;28;20052;-65
2022/10/12 11:39:00;;;;;;;38.55;14.25;;;16.10;99.90;;;;;;5050976;28;20029;-65
2022/10/12 11:41:46;;;;;;;36.92;14.23;;;16.00;99.90;;;;;;5050519;28;20141;-64
2022/10/12 11:44:34;;;;;;;30.33;12.43;;;16.00;99.90;;;;;;5051319;28;20045;-64
2022/10/12 11:47:13;;;;;;;40.22;14.52;;;16.10;99.90;;;;;;5051664;28;20517;-64
2022/10/12 11:49:52;;;;;;;42.95;15.50;;;16.20;99.90;;;;;;5050062;28;20028;-65
2022/10/12 11:52:20;;;;;;;35.17;14.30;;;16.20;99.90;;;;;;5050947;28;20047;-69
2022/10/12 11:54:53;;;;;;;35.10;14.20;;;16.30;99.90;;;;;;5050731;28;20024;-65
2022/10/12 11:57:26;;;;;;;36.17;15.15;;;16.30;99.90;;;;;;5050857;28;20021;-69
2022/10/12 11:59:58;;;;;;;29.63;14.07;;;16.20;99.90;;;;;;5051482;28;20043;-65
2022/10/12 12:02:44;;;;;;;36.15;14.63;;;16.20;99.90;;;;;;5050207;28;20461;-65
2022/10/12 12:05:14;;;;;;;35.78;14.65;;;16.00;99.90;;;;;;5051145;28;20033;-65
2022/10/12 12:07:46;;;;;;;41.22;13.95;;;16.10;99.90;;;;;;5049736;28;20171;-65
2022/10/12 12:10:29;;;;;;;42.22;15.20;;;16.00;99.90;;;;;;5050658;28;20033;-66
2022/10/12 12:13:13;;;;;;;39.72;14.63;;;16.00;99.90;;;;;;5050853;28;20492;-65
2022/10/12 12:15:41;;;;;;;35.00;13.63;;;16.10;99.90;;;;;;5048770;28;20033;-65
2022/10/12 12:18:22;;;;;;;30.63;12.77;;;16.20;99.90;;;;;;5050745;28;20032;-66
2022/10/12 12:20:47;;;;;;;35.63;14.38;;;16.40;99.90;;;;;;5050347;28;20036;-64
2022/10/12 12:23:32;;;;;;;32.50;14.38;;;16.40;99.90;;;;;;5050570;28;20041;-64
2022/10/12 12:26:18;;;;;;;33.25;15.13;;;16.50;99.90;;;;;;5050594;28;20052;-64
2022/10/12 12:28:50;;;;;;;32.90;13.55;;;16.50;99.90;;;;;;5049793;28;20032;-64
2022/10/12 12:31:36;;;;;;;33.10;14.98;;;16.50;99.90;;;;;;5050603;28;20029;-63
2022/10/12 12:34:16;;;;;;;38.15;15.73;;;16.60;99.90;;;;;;5082273;28;20044;-65
2022/10/12 12:36:45;;;;;;;42.47;14.75;;;16.60;99.90;;;;;;5049286;28;20028;-65
2022/10/12 12:39:32;;;;;;;33.90;14.88;;;16.70;99.90;;;;;;5050309;28;20037;-64
2022/10/12 12:42:01;;;;;;;33.75;14.65;;;16.70;99.90;;;;;;5050109;28;20033;-66
2022/10/12 12:44:33;;;;;;;34.55;14.88;;;16.80;99.90;;;;;;5048843;28;20120;-66
2022/10/12 12:47:01;;;;;;;35.33;16.13;;;16.90;99.90;;;;;;5048817;28;20024;-64